Time;durP1;ratioP1;P1;durP2;ratioP2;P2;SDS_P1;SDS_P2;PMS_P1;PMS_P2;Temp;Humidity;BMP_temperature;BMP_pressure;BME280_temperature;BME280_humidity;BME280_pressure;Samples;Min_cycle;Max_cycle;Signal;HPM_P1;HPM_P2
2022/02/01 00:00:31;;;;;;;1.30;0.50;;;;;;;;;;5007013;28;20048;-60
2022/02/01 00:03:01;;;;;;;0.60;0.33;;;;;;;;;;5006496;28;20038;-60
2022/02/01 00:08:11;;;;;;;2.37;0.50;;;;;;;;;;5006451;28;20407;-60
2022/02/01 00:18:58;;;;;;;0.73;0.40;;;;;;;;;;5004010;28;20046;-60
2022/02/01 00:37:51;;;;;;;0.63;0.30;;;;;;;;;;5004271;28;20081;-61
2022/02/01 00:40:17;;;;;;;1.20;0.20;;;;;;;;;;5007353;28;20065;-61
2022/02/01 00:42:43;;;;;;;0.30;0.30;;;;;;;;;;5010004;28;20061;-60
2022/02/01 00:45:09;;;;;;;0.63;0.40;;;;;;;;;;5008678;28;20038;-61
2022/02/01 00:47:35;;;;;;;1.40;0.43;;;;;;;;;;5011354;28;20026;-61
2022/02/01 00:50:01;;;;;;;2.57;0.77;;;;;;;;;;5009482;28;20037;-61
2022/02/01 00:52:29;;;;;;;1.37;0.30;;;;;;;;;;5008334;28;20396;-61
2022/02/01 00:54:55;;;;;;;1.53;0.50;;;;;;;;;;5007469;28;21570;-61
2022/02/01 00:57:21;;;;;;;1.27;0.80;;;;;;;;;;5009902;28;20039;-61
2022/02/01 00:59:47;;;;;;;2.27;0.40;;;;;;;;;;5010293;28;20042;-58
2022/02/01 01:02:31;;;;;;;1.63;0.47;;;;;;;;;;5011454;28;20034;-59
2022/02/01 01:04:57;;;;;;;1.85;0.60;;;;;;;;;;5009102;28;20092;-59
2022/02/01 01:07:23;;;;;;;0.80;0.40;;;;;;;;;;5010791;28;20045;-60
2022/02/01 01:09:50;;;;;;;2.27;0.57;;;;;;;;;;5011087;28;20049;-59
2022/02/01 01:12:17;;;;;;;1.10;0.50;;;;;;;;;;5010434;28;20034;-59
2022/02/01 01:15:15;;;;;;;1.43;0.67;;;;;;;;;;5007438;28;20052;-59
2022/02/01 01:45:32;;;;;;;3.03;1.25;;;;;;;;;;5008512;28;20101;-59
2022/02/01 01:53:27;;;;;;;2.90;1.67;;;;;;;;;;5009446;28;20068;-59
2022/02/01 01:55:54;;;;;;;3.37;1.57;;;;;;;;;;5008078;28;20547;-60
2022/02/01 01:58:21;;;;;;;2.60;1.50;;;;;;;;;;5009095;28;20131;-60
2022/02/01 02:01:08;;;;;;;3.27;1.60;;;;;;;;;;5012327;28;20033;-60
2022/02/01 02:03:34;;;;;;;2.57;1.57;;;;;;;;;;5007779;28;20071;-59
2022/02/01 02:06:01;;;;;;;2.10;1.30;;;;;;;;;;5008046;28;20415;-60
2022/02/01 02:08:29;;;;;;;2.10;1.50;;;;;;;;;;5008289;28;20496;-60
2022/02/01 02:18:20;;;;;;;4.23;1.60;;;;;;;;;;5009295;28;20092;-59
2022/02/01 02:20:50;;;;;;;2.40;1.47;;;;;;;;;;5008468;28;20442;-60
2022/02/01 02:23:16;;;;;;;1.77;1.30;;;;;;;;;;5006888;28;20042;-60
2022/02/01 02:25:42;;;;;;;4.43;1.93;;;;;;;;;;5007729;28;20042;-60
2022/02/01 02:28:12;;;;;;;3.47;1.57;;;;;;;;;;5006832;28;20465;-59
2022/02/01 02:30:38;;;;;;;2.80;1.43;;;;;;;;;;5008135;28;20505;-60
2022/02/01 02:33:05;;;;;;;1.57;1.07;;;;;;;;;;5004153;28;20034;-59
2022/02/01 02:35:35;;;;;;;3.13;1.20;;;;;;;;;;4996300;28;20468;-60
2022/02/01 02:38:11;;;;;;;1.47;1.10;;;;;;;;;;5008359;28;20050;-60
2022/02/01 02:46:00;;;;;;;;;;;;;;;;;;5002717;28;20045;-60
2022/02/01 02:48:27;;;;;;;1.53;0.90;;;;;;;;;;5006365;28;19914;-60
2022/02/01 02:50:53;;;;;;;1.63;1.00;;;;;;;;;;4996925;28;22246;-60
2022/02/01 02:53:19;;;;;;;2.53;1.00;;;;;;;;;;4997266;28;20125;-60
2022/02/01 02:55:45;;;;;;;1.47;1.13;;;;;;;;;;5031365;28;20476;-60
2022/02/01 02:58:11;;;;;;;1.30;0.87;;;;;;;;;;4996863;28;20089;-60
2022/02/01 03:00:37;;;;;;;3.37;0.90;;;;;;;;;;5004212;28;20046;-59
2022/02/01 03:03:03;;;;;;;1.60;1.00;;;;;;;;;;5009222;28;20486;-59
2022/02/01 03:05:29;;;;;;;0.80;0.63;;;;;;;;;;5007283;28;20046;-60
2022/02/01 03:07:55;;;;;;;1.83;0.80;;;;;;;;;;5006295;28;20052;-60
2022/02/01 03:10:21;;;;;;;2.63;1.00;;;;;;;;;;5007556;28;20446;-60
2022/02/01 03:20:42;;;;;;;1.77;0.63;;;;;;;;;;5000275;28;20057;-59
2022/02/01 03:23:08;;;;;;;1.90;0.90;;;;;;;;;;5006567;28;20026;-60
2022/02/01 03:25:34;;;;;;;1.63;0.90;;;;;;;;;;5001281;28;20121;-60
2022/02/01 03:28:00;;;;;;;2.20;1.10;;;;;;;;;;5008160;28;20038;-60
2022/02/01 03:30:26;;;;;;;0.83;0.50;;;;;;;;;;5006837;28;20128;-60
2022/02/01 03:32:53;;;;;;;1.50;0.70;;;;;;;;;;5005483;28;20026;-60
2022/02/01 03:35:19;;;;;;;1.87;0.87;;;;;;;;;;5005340;28;20091;-60
2022/02/01 03:37:45;;;;;;;2.80;1.10;;;;;;;;;;5007032;28;20048;-60
2022/02/01 03:40:16;;;;;;;1.97;0.70;;;;;;;;;;5002258;28;20068;-60
2022/02/01 03:42:42;;;;;;;2.67;1.10;;;;;;;;;;5003993;28;20084;-59
2022/02/01 03:45:09;;;;;;;1.57;0.80;;;;;;;;;;5006467;28;20508;-59
2022/02/01 03:47:36;;;;;;;2.23;0.63;;;;;;;;;;5004238;28;20074;-60
2022/02/01 03:50:03;;;;;;;2.47;0.90;;;;;;;;;;5000710;28;20050;-60
2022/02/01 03:52:29;;;;;;;2.50;0.80;;;;;;;;;;5007729;28;20060;-60
2022/02/01 03:54:55;;;;;;;4.10;0.70;;;;;;;;;;5002069;28;20041;-60
2022/02/01 03:57:21;;;;;;;1.10;0.60;;;;;;;;;;5007998;28;20046;-60
2022/02/01 03:59:47;;;;;;;1.33;0.70;;;;;;;;;;5005920;28;20492;-60
2022/02/01 04:02:15;;;;;;;2.27;0.77;;;;;;;;;;5006977;28;20453;-60
2022/02/01 04:04:41;;;;;;;1.93;0.70;;;;;;;;;;4998211;28;20052;-60
2022/02/01 04:07:08;;;;;;;0.97;0.73;;;;;;;;;;5005600;28;20092;-59
2022/02/01 04:09:35;;;;;;;1.63;0.60;;;;;;;;;;5007689;28;20042;-59
2022/02/01 04:12:04;;;;;;;2.47;0.90;;;;;;;;;;4998030;28;20456;-59
2022/02/01 04:14:32;;;;;;;0.37;0.30;;;;;;;;;;4999682;28;20054;-60
2022/02/01 04:17:00;;;;;;;1.10;0.73;;;;;;;;;;5004673;28;20175;-60
2022/02/01 04:19:28;;;;;;;1.27;0.77;;;;;;;;;;5003714;28;20148;-60
2022/02/01 04:21:58;;;;;;;1.60;0.80;;;;;;;;;;5000421;28;20046;-60
2022/02/01 04:24:24;;;;;;;2.10;0.70;;;;;;;;;;5000630;28;20475;-60
2022/02/01 04:26:50;;;;;;;2.27;1.00;;;;;;;;;;4999680;28;20038;-60
2022/02/01 04:29:16;;;;;;;1.97;1.30;;;;;;;;;;5001338;28;20062;-60
2022/02/01 04:31:42;;;;;;;1.80;1.00;;;;;;;;;;5002571;28;20395;-59
2022/02/01 04:34:08;;;;;;;2.70;0.80;;;;;;;;;;5000964;28;20045;-59
2022/02/01 04:36:34;;;;;;;1.80;0.60;;;;;;;;;;4996584;28;20052;-59
2022/02/01 04:39:00;;;;;;;2.40;0.87;;;;;;;;;;4988321;28;20435;-60
2022/02/01 04:41:27;;;;;;;2.67;0.60;;;;;;;;;;5000415;28;20157;-60
2022/02/01 04:43:54;;;;;;;0.93;0.60;;;;;;;;;;4992527;28;20088;-59
2022/02/01 04:46:20;;;;;;;1.13;0.60;;;;;;;;;;5015070;28;20453;-59
2022/02/01 04:48:49;;;;;;;1.20;0.40;;;;;;;;;;4999578;28;20096;-59
2022/02/01 04:51:17;;;;;;;1.23;0.20;;;;;;;;;;4992957;28;20533;-59
2022/02/01 04:53:44;;;;;;;0.30;0.10;;;;;;;;;;5000772;28;20369;-59
2022/02/01 04:56:10;;;;;;;0.40;0.10;;;;;;;;;;4999378;28;20041;-60
2022/02/01 04:58:36;;;;;;;0.43;0.00;;;;;;;;;;5002085;28;20077;-59
2022/02/01 05:01:02;;;;;;;2.93;0.30;;;;;;;;;;5006906;28;20065;-60
2022/02/01 05:03:28;;;;;;;0.83;0.10;;;;;;;;;;4999605;28;20046;-60
2022/02/01 05:05:56;;;;;;;0.30;0.00;;;;;;;;;;5001729;28;20048;-60
2022/02/01 05:08:24;;;;;;;2.13;0.10;;;;;;;;;;5004652;28;20817;-60
2022/02/01 05:10:50;;;;;;;1.03;0.00;;;;;;;;;;5012942;28;20045;-60
2022/02/01 05:16:24;;;;;;;0.00;0.00;;;;;;;;;;5002187;28;20065;-60
2022/02/01 05:19:01;;;;;;;0.83;0.03;;;;;;;;;;5000690;28;20049;-60
2022/02/01 05:21:27;;;;;;;0.10;0.00;;;;;;;;;;5001135;28;20124;-60
2022/02/01 05:23:55;;;;;;;0.23;0.00;;;;;;;;;;5002666;28;20580;-60
2022/02/01 05:26:23;;;;;;;0.53;0.10;;;;;;;;;;5004075;28;20061;-59
2022/02/01 05:28:50;;;;;;;0.10;0.00;;;;;;;;;;5001097;28;20034;-60
2022/02/01 05:31:16;;;;;;;2.07;0.10;;;;;;;;;;5001006;28;20045;-60
2022/02/01 05:33:42;;;;;;;2.40;0.30;;;;;;;;;;5002486;28;20039;-60
2022/02/01 05:36:09;;;;;;;0.20;0.03;;;;;;;;;;5006719;28;20030;-60
2022/02/01 05:38:35;;;;;;;0.37;0.00;;;;;;;;;;5009044;28;20512;-60
2022/02/01 05:41:01;;;;;;;0.10;0.00;;;;;;;;;;5002870;28;20037;-60
2022/02/01 05:43:33;;;;;;;0.50;0.10;;;;;;;;;;5007979;28;20042;-60
2022/02/01 05:46:01;;;;;;;0.10;0.00;;;;;;;;;;5006848;28;20622;-60
2022/02/01 05:48:27;;;;;;;0.10;0.00;;;;;;;;;;5008054;28;20052;-60
2022/02/01 05:50:54;;;;;;;0.83;0.00;;;;;;;;;;5000537;28;20052;-60
2022/02/01 05:53:20;;;;;;;1.10;0.10;;;;;;;;;;5003919;28;20062;-60
2022/02/01 05:55:48;;;;;;;3.00;0.13;;;;;;;;;;4991630;28;20109;-60
2022/02/01 05:58:14;;;;;;;2.03;0.10;;;;;;;;;;5008290;28;20042;-60
2022/02/01 06:00:41;;;;;;;1.20;0.10;;;;;;;;;;5006869;28;20042;-59
2022/02/01 06:03:07;;;;;;;0.60;0.10;;;;;;;;;;5009111;28;20124;-60
2022/02/01 06:05:33;;;;;;;1.20;0.20;;;;;;;;;;5010079;28;20462;-60
2022/02/01 06:07:59;;;;;;;2.43;0.10;;;;;;;;;;5009076;28;20064;-61
2022/02/01 06:10:25;;;;;;;0.70;0.10;;;;;;;;;;5008847;28;20056;-60
2022/02/01 06:12:52;;;;;;;4.60;0.10;;;;;;;;;;5006263;28;20063;-60
2022/02/01 06:15:19;;;;;;;3.37;0.30;;;;;;;;;;5003150;28;20062;-60
2022/02/01 06:17:45;;;;;;;1.07;0.10;;;;;;;;;;5008039;28;20038;-60
2022/02/01 06:20:12;;;;;;;1.07;0.10;;;;;;;;;;5008020;28;20046;-60
2022/02/01 06:22:39;;;;;;;1.37;0.10;;;;;;;;;;5011711;28;20029;-60
2022/02/01 06:25:06;;;;;;;1.07;0.00;;;;;;;;;;5021597;28;20088;-60
2022/02/01 06:27:32;;;;;;;1.77;0.10;;;;;;;;;;5008341;28;20038;-60
2022/02/01 06:30:17;;;;;;;4.50;0.30;;;;;;;;;;5003832;28;20091;-60
2022/02/01 06:32:43;;;;;;;1.80;0.13;;;;;;;;;;5001444;28;20033;-59
2022/02/01 06:35:09;;;;;;;1.50;0.10;;;;;;;;;;5000977;28;20038;-60
2022/02/01 06:37:35;;;;;;;3.03;0.10;;;;;;;;;;5010999;28;20484;-59
2022/02/01 06:40:02;;;;;;;2.77;0.10;;;;;;;;;;5007549;28;20053;-60
2022/02/01 06:42:28;;;;;;;1.27;0.03;;;;;;;;;;5007307;28;20049;-60
2022/02/01 06:44:54;;;;;;;0.73;0.10;;;;;;;;;;5007289;28;20065;-60
2022/02/01 06:47:20;;;;;;;0.67;0.10;;;;;;;;;;5006834;28;20049;-60
2022/02/01 06:49:46;;;;;;;3.33;0.30;;;;;;;;;;5003629;28;20042;-60
2022/02/01 06:52:12;;;;;;;2.33;0.37;;;;;;;;;;4998682;28;20034;-60
2022/02/01 06:54:40;;;;;;;4.33;0.30;;;;;;;;;;5007143;28;20108;-58
2022/02/01 06:57:07;;;;;;;1.27;0.30;;;;;;;;;;5005823;28;20042;-59
2022/02/01 06:59:33;;;;;;;1.10;0.10;;;;;;;;;;5009773;28;20130;-60
2022/02/01 07:01:59;;;;;;;8.13;0.50;;;;;;;;;;5004020;28;20125;-60
2022/02/01 07:04:25;;;;;;;0.50;0.27;;;;;;;;;;5007906;28;20444;-60
2022/02/01 07:06:51;;;;;;;2.47;0.10;;;;;;;;;;5006951;28;20132;-61
2022/02/01 07:09:19;;;;;;;2.03;0.30;;;;;;;;;;5005876;28;20407;-60
2022/02/01 07:11:45;;;;;;;1.97;0.20;;;;;;;;;;5002504;28;20089;-59
2022/02/01 07:14:11;;;;;;;5.10;0.40;;;;;;;;;;5000628;28;20081;-60
2022/02/01 07:16:37;;;;;;;1.43;0.30;;;;;;;;;;5004661;28;20067;-60
2022/02/01 07:19:03;;;;;;;2.77;0.30;;;;;;;;;;4996522;28;20038;-60
2022/02/01 07:21:29;;;;;;;2.00;0.40;;;;;;;;;;5000521;28;20042;-60
2022/02/01 07:23:56;;;;;;;7.50;0.30;;;;;;;;;;5001654;28;20068;-59
2022/02/01 07:26:22;;;;;;;3.30;0.40;;;;;;;;;;5003807;28;20128;-59
2022/02/01 07:28:48;;;;;;;3.57;0.97;;;;;;;;;;5008117;28;20026;-60
2022/02/01 07:31:14;;;;;;;1.33;0.23;;;;;;;;;;5007194;28;20403;-60
2022/02/01 07:33:40;;;;;;;3.23;0.20;;;;;;;;;;5005103;28;20391;-59
2022/02/01 07:36:07;;;;;;;4.80;0.20;;;;;;;;;;5014095;28;20123;-59
2022/02/01 07:38:33;;;;;;;3.30;0.10;;;;;;;;;;5004886;28;20073;-60
2022/02/01 07:41:00;;;;;;;2.60;0.03;;;;;;;;;;5003237;28;20026;-59
2022/02/01 07:43:31;;;;;;;5.90;0.30;;;;;;;;;;5013311;28;20634;-59
2022/02/01 07:45:57;;;;;;;2.87;0.20;;;;;;;;;;5007482;28;20040;-60
2022/02/01 07:48:23;;;;;;;2.53;0.30;;;;;;;;;;5005098;28;21213;-60
2022/02/01 07:50:49;;;;;;;2.83;0.20;;;;;;;;;;5008477;28;20034;-60
2022/02/01 07:53:15;;;;;;;4.13;0.17;;;;;;;;;;5021416;28;20534;-60
2022/02/01 07:55:42;;;;;;;0.50;0.10;;;;;;;;;;5006793;28;20046;-60
2022/02/01 07:58:08;;;;;;;2.73;0.20;;;;;;;;;;5005698;28;20132;-60
2022/02/01 08:00:34;;;;;;;5.90;0.37;;;;;;;;;;5005797;28;20169;-58
2022/02/01 08:03:00;;;;;;;1.83;0.20;;;;;;;;;;5007696;28;20479;-60
2022/02/01 08:05:29;;;;;;;4.53;0.57;;;;;;;;;;5013469;28;20050;-60
2022/02/01 08:07:55;;;;;;;5.43;0.77;;;;;;;;;;5000208;28;20149;-60
2022/02/01 08:10:21;;;;;;;1.40;0.27;;;;;;;;;;4998933;28;20125;-60
2022/02/01 08:21:04;;;;;;;5.10;0.93;;;;;;;;;;5008660;28;20048;-60
2022/02/01 08:23:30;;;;;;;2.53;0.50;;;;;;;;;;5006623;28;20107;-60
2022/02/01 08:25:58;;;;;;;1.53;0.47;;;;;;;;;;5004765;28;20410;-67
2022/02/01 08:28:24;;;;;;;2.93;0.40;;;;;;;;;;5006881;28;20050;-67
2022/02/01 08:30:51;;;;;;;1.33;0.20;;;;;;;;;;5006650;28;20034;-66
2022/02/01 08:33:17;;;;;;;1.97;0.30;;;;;;;;;;5009919;28;20083;-67
2022/02/01 08:35:43;;;;;;;2.83;0.27;;;;;;;;;;5013063;28;20033;-66
2022/02/01 08:38:09;;;;;;;2.13;0.10;;;;;;;;;;5010267;28;20041;-67
2022/02/01 08:40:35;;;;;;;2.10;0.10;;;;;;;;;;5009460;28;20053;-66
2022/02/01 08:43:01;;;;;;;1.60;0.23;;;;;;;;;;5005211;28;20145;-67
2022/02/01 08:45:28;;;;;;;1.17;0.20;;;;;;;;;;5008560;28;20081;-66
2022/02/01 08:47:56;;;;;;;3.03;0.30;;;;;;;;;;5005060;28;20478;-66
2022/02/01 08:50:27;;;;;;;4.87;0.50;;;;;;;;;;5006339;28;20133;-67
2022/02/01 08:52:57;;;;;;;0.70;0.03;;;;;;;;;;5005250;28;20030;-67
2022/02/01 08:55:37;;;;;;;2.07;0.20;;;;;;;;;;5007888;28;20041;-66
2022/02/01 08:58:04;;;;;;;2.00;0.30;;;;;;;;;;5026883;28;20072;-67
2022/02/01 09:00:31;;;;;;;3.03;0.60;;;;;;;;;;5007880;28;20037;-66
2022/02/01 09:02:58;;;;;;;5.47;0.50;;;;;;;;;;5009151;28;20044;-67
2022/02/01 09:05:25;;;;;;;4.00;0.60;;;;;;;;;;5005296;28;20446;-67
2022/02/01 09:07:51;;;;;;;1.30;0.37;;;;;;;;;;5010156;28;20064;-67
2022/02/01 09:10:17;;;;;;;0.87;0.03;;;;;;;;;;5011980;28;20037;-66
2022/02/01 09:12:43;;;;;;;2.00;0.20;;;;;;;;;;5005724;28;20459;-66
2022/02/01 09:15:11;;;;;;;3.23;0.07;;;;;;;;;;5009088;28;20037;-67
2022/02/01 09:17:37;;;;;;;2.53;0.10;;;;;;;;;;5008476;28;20053;-67
2022/02/01 09:20:04;;;;;;;1.75;0.10;;;;;;;;;;5008766;28;20084;-67
2022/02/01 09:22:30;;;;;;;1.30;0.20;;;;;;;;;;5009625;28;20037;-67
2022/02/01 09:25:05;;;;;;;1.87;0.30;;;;;;;;;;5010144;28;20060;-67
2022/02/01 09:27:31;;;;;;;5.40;0.30;;;;;;;;;;5009169;28;20042;-67
2022/02/01 09:30:30;;;;;;;2.90;0.20;;;;;;;;;;5011727;28;20472;-67
2022/02/01 09:32:56;;;;;;;1.50;0.53;;;;;;;;;;5004657;28;20034;-67
2022/02/01 09:35:22;;;;;;;3.93;0.10;;;;;;;;;;5008937;28;20046;-66
2022/02/01 09:37:48;;;;;;;4.90;0.40;;;;;;;;;;5016570;28;20081;-66
2022/02/01 09:40:14;;;;;;;2.97;1.10;;;;;;;;;;5007455;28;20038;-66
2022/02/01 09:42:41;;;;;;;2.95;0.10;;;;;;;;;;5004583;28;20547;-66
2022/02/01 09:45:07;;;;;;;0.53;0.30;;;;;;;;;;5002951;28;20125;-67
2022/02/01 09:47:35;;;;;;;0.83;0.27;;;;;;;;;;5002796;28;20492;-67
2022/02/01 09:50:01;;;;;;;0.43;0.40;;;;;;;;;;5006865;28;20037;-62
2022/02/01 09:52:27;;;;;;;0.80;0.30;;;;;;;;;;5008845;28;20041;-72
2022/02/01 09:54:54;;;;;;;3.75;0.30;;;;;;;;;;5007302;28;20042;-66
2022/02/01 09:57:21;;;;;;;3.72;0.32;;;;;;;;;;5006535;28;20056;-65
2022/02/01 09:59:57;;;;;;;5.57;0.50;;;;;;;;;;5005873;28;20053;-65
2022/02/01 10:02:34;;;;;;;3.15;0.35;;;;;;;;;;4996025;28;20080;-65
2022/02/01 10:05:01;;;;;;;1.40;0.10;;;;;;;;;;5009774;28;20057;-66
2022/02/01 10:07:27;;;;;;;4.63;0.27;;;;;;;;;;5006664;28;20121;-66
2022/02/01 10:09:58;;;;;;;0.90;0.13;;;;;;;;;;5007374;28;20116;-66
2022/02/01 10:12:27;;;;;;;1.55;0.10;;;;;;;;;;5007619;28;21850;-65
2022/02/01 10:14:57;;;;;;;1.25;0.10;;;;;;;;;;5009266;28;20038;-66
2022/02/01 10:17:33;;;;;;;2.33;0.38;;;;;;;;;;4998705;28;20057;-66
2022/02/01 10:19:59;;;;;;;5.55;0.98;;;;;;;;;;5005695;28;20046;-65
2022/02/01 10:22:30;;;;;;;0.22;0.20;;;;;;;;;;4992960;28;20403;-66
2022/02/01 10:24:56;;;;;;;1.73;0.22;;;;;;;;;;4991507;28;20057;-66
2022/02/01 10:27:24;;;;;;;4.53;0.50;;;;;;;;;;5000352;28;20065;-66
2022/02/01 10:35:10;;;;;;;1.75;0.20;;;;;;;;;;4989993;28;20042;-66
2022/02/01 10:37:36;;;;;;;1.60;0.20;;;;;;;;;;5004173;28;20100;-66
2022/02/01 10:40:05;;;;;;;0.80;0.30;;;;;;;;;;5002560;28;20030;-67
2022/02/01 10:42:31;;;;;;;1.95;0.10;;;;;;;;;;5007298;28;20046;-66
2022/02/01 10:44:58;;;;;;;2.33;0.28;;;;;;;;;;4999131;28;20045;-66
2022/02/01 10:47:42;;;;;;;1.50;0.10;;;;;;;;;;5013679;28;20132;-67
2022/02/01 10:50:10;;;;;;;0.10;0.10;;;;;;;;;;5007450;28;20055;-66
2022/02/01 10:52:49;;;;;;;2.95;0.10;;;;;;;;;;5003102;28;20391;-66
2022/02/01 10:55:16;;;;;;;3.55;0.20;;;;;;;;;;5005923;28;20041;-66
2022/02/01 11:00:47;;;;;;;0.85;0.10;;;;;;;;;;4997625;28;20036;-66
2022/02/01 11:03:16;;;;;;;2.33;0.30;;;;;;;;;;5004834;28;20057;-66
2022/02/01 11:05:46;;;;;;;1.92;0.20;;;;;;;;;;5019829;28;20034;-65
2022/02/01 11:08:16;;;;;;;2.63;0.20;;;;;;;;;;5007081;28;20033;-65
2022/02/01 11:10:44;;;;;;;1.65;0.20;;;;;;;;;;5007775;28;20054;-66
2022/02/01 11:13:11;;;;;;;0.80;0.28;;;;;;;;;;5007441;28;20130;-66
2022/02/01 11:15:37;;;;;;;0.55;0.40;;;;;;;;;;5008099;28;20052;-65
2022/02/01 11:18:12;;;;;;;0.35;0.30;;;;;;;;;;5002428;28;20392;-66
2022/02/01 11:20:39;;;;;;;0.98;0.17;;;;;;;;;;5007305;28;20046;-66
2022/02/01 11:23:06;;;;;;;2.67;0.47;;;;;;;;;;5006640;28;20041;-66
2022/02/01 11:25:47;;;;;;;1.60;0.38;;;;;;;;;;5005337;28;20038;-66
2022/02/01 11:28:40;;;;;;;0.77;0.30;;;;;;;;;;4998960;28;20041;-66
2022/02/01 11:31:06;;;;;;;0.47;0.30;;;;;;;;;;5006611;28;20038;-66
2022/02/01 11:33:37;;;;;;;1.00;0.25;;;;;;;;;;5000360;28;20066;-66
2022/02/01 11:36:04;;;;;;;0.38;0.10;;;;;;;;;;5000419;28;20495;-65
2022/02/01 11:38:30;;;;;;;1.65;0.30;;;;;;;;;;5006298;28;20081;-65
2022/02/01 11:41:02;;;;;;;1.83;0.05;;;;;;;;;;5011343;28;20042;-65
2022/02/01 11:43:28;;;;;;;0.15;0.00;;;;;;;;;;5009158;28;20064;-66
2022/02/01 11:46:00;;;;;;;1.85;0.17;;;;;;;;;;5006280;28;20050;-66
2022/02/01 11:48:31;;;;;;;1.92;0.38;;;;;;;;;;5017982;28;20092;-66
2022/02/01 11:50:59;;;;;;;2.30;0.63;;;;;;;;;;5007451;28;20038;-65
2022/02/01 11:53:34;;;;;;;0.28;0.13;;;;;;;;;;5006267;28;20045;-65
2022/02/01 11:56:01;;;;;;;2.90;0.30;;;;;;;;;;5006879;28;20062;-66
2022/02/01 11:58:34;;;;;;;0.68;0.13;;;;;;;;;;5005003;28;20522;-66
2022/02/01 12:01:01;;;;;;;2.05;0.15;;;;;;;;;;5006502;28;20089;-65
2022/02/01 12:03:29;;;;;;;0.20;0.20;;;;;;;;;;5006620;28;20062;-64
2022/02/01 12:06:00;;;;;;;1.20;0.20;;;;;;;;;;5006403;28;20137;-65
2022/02/01 12:08:31;;;;;;;1.10;0.40;;;;;;;;;;5009393;28;20184;-65
2022/02/01 12:10:58;;;;;;;0.50;0.20;;;;;;;;;;4994819;28;20081;-65
2022/02/01 12:13:26;;;;;;;0.90;0.13;;;;;;;;;;5010117;28;20085;-66
2022/02/01 12:15:55;;;;;;;0.60;0.50;;;;;;;;;;5011749;28;20503;-65
2022/02/01 12:18:32;;;;;;;1.20;0.28;;;;;;;;;;5008213;28;20077;-65
2022/02/01 12:21:03;;;;;;;3.80;0.25;;;;;;;;;;5019780;28;20452;-65
2022/02/01 12:23:29;;;;;;;0.98;0.60;;;;;;;;;;5004843;28;20049;-66
2022/02/01 12:25:55;;;;;;;0.20;0.20;;;;;;;;;;5001695;28;20038;-64
2022/02/01 12:28:23;;;;;;;1.95;0.20;;;;;;;;;;5006012;28;20038;-64
2022/02/01 12:30:50;;;;;;;0.30;0.13;;;;;;;;;;5006334;28;20080;-64
2022/02/01 12:33:18;;;;;;;1.00;0.30;;;;;;;;;;5009239;28;20052;-66
2022/02/01 12:35:44;;;;;;;0.32;0.13;;;;;;;;;;5011349;28;20483;-65
2022/02/01 12:38:23;;;;;;;0.45;0.20;;;;;;;;;;5006394;28;20056;-65
2022/02/01 12:40:52;;;;;;;1.17;0.20;;;;;;;;;;5008659;28;20046;-66
2022/02/01 12:43:22;;;;;;;0.47;0.17;;;;;;;;;;5007376;28;20038;-65
2022/02/01 12:46:01;;;;;;;0.63;0.45;;;;;;;;;;5010840;28;20545;-66
2022/02/01 12:48:27;;;;;;;2.47;0.40;;;;;;;;;;5009780;28;20042;-65
2022/02/01 12:51:04;;;;;;;1.95;0.40;;;;;;;;;;5010542;28;20034;-66
2022/02/01 12:53:40;;;;;;;0.75;0.40;;;;;;;;;;5008070;28;20049;-65
2022/02/01 12:56:12;;;;;;;0.90;0.32;;;;;;;;;;5008363;28;20057;-64
2022/02/01 12:58:39;;;;;;;0.65;0.30;;;;;;;;;;5008247;28;20045;-65
2022/02/01 13:01:06;;;;;;;0.60;0.30;;;;;;;;;;5010212;28;20034;-65
2022/02/01 13:03:45;;;;;;;2.75;0.68;;;;;;;;;;5010009;28;20062;-64
2022/02/01 13:06:12;;;;;;;0.25;0.22;;;;;;;;;;5008210;28;20038;-64
2022/02/01 13:12:56;;;;;;;1.75;0.20;;;;;;;;;;5008391;28;20041;-64
2022/02/01 13:16:45;;;;;;;4.68;0.40;;;;;;;;;;5009102;28;20496;-65
2022/02/01 13:22:11;;;;;;;0.80;0.55;;;;;;;;;;4996720;28;20411;-65
2022/02/01 13:24:37;;;;;;;1.02;0.57;;;;;;;;;;5005543;28;20038;-64
2022/02/01 13:27:03;;;;;;;1.17;0.10;;;;;;;;;;5009425;28;20056;-65
2022/02/01 13:29:29;;;;;;;2.75;0.30;;;;;;;;;;5002808;28;20042;-67
2022/02/01 13:31:55;;;;;;;1.55;0.17;;;;;;;;;;5006590;28;20049;-64
2022/02/01 13:34:27;;;;;;;2.28;0.30;;;;;;;;;;5007389;28;20499;-64
2022/02/01 13:36:56;;;;;;;0.65;0.13;;;;;;;;;;5021528;28;20121;-66
2022/02/01 13:39:27;;;;;;;0.60;0.30;;;;;;;;;;5008881;28;20048;-68
2022/02/01 13:41:57;;;;;;;2.42;0.35;;;;;;;;;;5005622;28;20559;-67
2022/02/01 13:44:23;;;;;;;1.08;0.20;;;;;;;;;;5005645;28;20471;-67
2022/02/01 13:46:57;;;;;;;2.75;0.20;;;;;;;;;;5000873;28;20033;-65
2022/02/01 13:52:26;;;;;;;0.60;0.43;;;;;;;;;;5002263;28;20045;-68
2022/02/01 13:54:52;;;;;;;0.98;0.20;;;;;;;;;;5000850;28;20120;-66
2022/02/01 13:57:22;;;;;;;1.38;0.22;;;;;;;;;;5005990;28;20053;-66
2022/02/01 13:59:49;;;;;;;1.50;0.13;;;;;;;;;;5007709;28;20419;-66
2022/02/01 14:02:30;;;;;;;1.55;0.10;;;;;;;;;;5019520;28;20407;-66
2022/02/01 14:05:07;;;;;;;4.10;0.28;;;;;;;;;;5003799;28;20040;-65
2022/02/01 14:10:47;;;;;;;0.25;0.10;;;;;;;;;;5008832;28;20552;-65
2022/02/01 14:27:15;;;;;;;0.70;0.17;;;;;;;;;;5007453;28;20475;-67
2022/02/01 14:46:17;;;;;;;1.15;0.30;;;;;;;;;;5004520;28;20037;-68
2022/02/01 14:48:43;;;;;;;0.82;0.30;;;;;;;;;;5007067;28;20037;-67
2022/02/01 14:51:10;;;;;;;0.77;0.20;;;;;;;;;;5007954;28;20471;-66
2022/02/01 14:53:36;;;;;;;3.58;0.50;;;;;;;;;;5006768;28;20057;-66
2022/02/01 14:56:19;;;;;;;3.08;1.35;;;;;;;;;;5008617;28;20077;-65
2022/02/01 15:14:39;;;;;;;0.55;0.32;;;;;;;;;;4997549;28;20067;-61
2022/02/01 15:17:06;;;;;;;1.85;0.30;;;;;;;;;;5006963;28;20453;-61
2022/02/01 15:19:32;;;;;;;0.20;0.10;;;;;;;;;;5008205;28;20041;-62
2022/02/01 15:21:58;;;;;;;0.30;0.20;;;;;;;;;;5008011;28;20448;-62
2022/02/01 15:24:24;;;;;;;2.70;0.70;;;;;;;;;;4990044;28;20035;-65
2022/02/01 15:26:50;;;;;;;2.97;0.95;;;;;;;;;;4997714;28;20030;-65
2022/02/01 15:29:16;;;;;;;2.50;1.00;;;;;;;;;;4998625;28;20049;-65
2022/02/01 15:31:42;;;;;;;2.05;1.27;;;;;;;;;;4997154;28;20050;-65
2022/02/01 15:34:08;;;;;;;3.22;1.25;;;;;;;;;;5006145;28;20041;-66
2022/02/01 15:36:36;;;;;;;2.20;1.17;;;;;;;;;;5008083;28;20044;-65
2022/02/01 15:58:23;;;;;;;2.63;0.90;;;;;;;;;;5000489;28;20061;-66
2022/02/01 16:00:49;;;;;;;1.42;0.77;;;;;;;;;;5005724;28;20049;-65
2022/02/01 16:03:22;;;;;;;3.35;1.30;;;;;;;;;;5006397;28;20115;-66
2022/02/01 16:05:48;;;;;;;7.88;1.30;;;;;;;;;;5005699;28;20053;-65
2022/02/01 16:08:24;;;;;;;1.60;0.80;;;;;;;;;;5005064;28;20061;-65
2022/02/01 16:10:55;;;;;;;1.02;0.80;;;;;;;;;;5007494;28;20038;-65
2022/02/01 16:13:35;;;;;;;3.17;0.80;;;;;;;;;;5001374;28;20034;-65
2022/02/01 16:16:02;;;;;;;1.65;1.10;;;;;;;;;;5005303;28;20038;-65
2022/02/01 16:18:28;;;;;;;2.08;0.80;;;;;;;;;;4990049;28;20579;-67
2022/02/01 16:20:55;;;;;;;1.25;0.90;;;;;;;;;;5004142;28;20042;-65
2022/02/01 16:23:21;;;;;;;4.80;1.02;;;;;;;;;;5005972;28;20038;-65
2022/02/01 16:25:47;;;;;;;1.60;1.00;;;;;;;;;;5005261;28;20034;-66
2022/02/01 16:28:13;;;;;;;4.13;1.90;;;;;;;;;;5006163;28;20030;-65
2022/02/01 16:30:41;;;;;;;2.17;1.58;;;;;;;;;;5002309;28;20049;-65
2022/02/01 16:33:08;;;;;;;4.20;1.75;;;;;;;;;;5006731;28;20045;-66
2022/02/01 16:35:35;;;;;;;3.35;1.50;;;;;;;;;;5005307;28;20104;-66
2022/02/01 16:38:20;;;;;;;3.40;1.45;;;;;;;;;;5007639;28;20042;-66
2022/02/01 16:40:46;;;;;;;;;;;;;;;;;;5000332;28;20061;-66
2022/02/01 16:43:16;;;;;;;3.92;1.60;;;;;;;;;;5016049;28;19918;-66
2022/02/01 16:46:09;;;;;;;3.05;1.77;;;;;;;;;;5005148;28;20069;-65
2022/02/01 16:48:38;;;;;;;3.03;1.75;;;;;;;;;;4995667;28;20045;-65
